• Join FlightAware (Why Join?)
  • Login
  • US Flag 
01:48PM EDT


 

Airport Tracker/Info


-or-


 

Live Flight TrackerFlight Track Log ✈ RPA3228 ✈ 09-Nov-2013 ✈ KDCA - KBUF

Flight Track Log - Related Links

Times and Time Zones

All times are in EST time to prevent confusion due to time zone crossing. See the RPA3228 flight status page for this flight to view local times or setup timezone preferences in your user account.

Time Position Orientation Groundspeed Altitude Reporting Facility
EST Latitude Longitude Course Direction KTS MPH feet Rate Location/Type
10:22AM 38.8333 -77.0333 339° North 146 168 1,100  Level Potomac TRACON
10:23AM 38.7833 -77.0333 180° South 205 236 3,700 2,760 Climbing Potomac TRACON
10:24AM 39.1075 -77.1373 337° Northwest  Level Estimated
10:24AM 38.7500 -77.0833 229° Southwest 257 296 6,500  Level Potomac TRACON
10:25AM 39.1870 -77.1889 333° Northwest  Level FlightAware Approximate
10:25AM 38.7333 -77.1667 256° West 265 305 10,200  Level Potomac TRACON
10:26AM 39.2723 -77.2219 333° Northwest  Level Estimated
10:26AM 38.7333 -77.2667 270° West 318 366 11,000  Level Potomac TRACON
10:27AM 39.3575 -77.2551 339° North  Level Estimated
10:27AM 38.8167 -77.3333 328° Northwest 316 364 11,000  Level Potomac TRACON
10:29AM 38.9639 -77.4283 333° Northwest 331 381 14,700 1,920 Climbing Washington Center
10:30AM 39.0639 -77.4361 357° North 341 392 17,000 1,140 Climbing Washington Center
10:31AM 39.1619 -77.4386 359° North 341 392 17,000 540 Level Washington Center
10:32AM 39.2597 -77.4439 358° North 346 398 18,100 1,620 Climbing Washington Center
10:33AM 39.3597 -77.4464 359° North 351 404 20,200 2,340 Climbing Washington Center
10:35AM 39.5842 -77.4572 358° North 381 438 25,200 2,220 Climbing New York Center
10:36AM 39.6906 -77.4567 360° North 381 438 27,000 840 Climbing New York Center
10:37AM 39.8008 -77.4592 359° North 386 444 27,000  Level New York Center
10:38AM 39.9053 -77.4906 347° North 386 444 27,000  Level New York Center
10:39AM 39.9950 -77.5264 343° North 381 438 27,000  Level New York Center
10:40AM 40.0889 -77.5653 342° North 386 444 27,000  Level New York Center
10:41AM 40.2011 -77.6064 344° North 386 444 27,000  Level New York Center
10:42AM 40.3031 -77.6461 343° North 386 444 27,000  Level New York Center
10:43AM 40.4028 -77.6861 343° North 381 438 27,000  Level New York Center
10:44AM 40.5131 -77.7272 344° North 375 432 27,000 -480 Level New York Center
10:45AM 40.6128 -77.7703 342° North 375 432 26,100 -540 Descending New York Center
10:46AM 40.7147 -77.8081 344° North 375 432 26,000 -60 Descending New York Center
10:48AM 40.9131 -77.8886 343° North 378 435 26,000  Level Cleveland Center
10:49AM 41.0328 -77.9367 343° North 378 435 26,000  Level Cleveland Center
10:50AM 41.1319 -77.9781 343° North 378 435 26,000  Level Cleveland Center
10:51AM 41.2314 -78.0181 343° North 378 435 26,000  Level Cleveland Center
10:52AM 41.3314 -78.0581 343° North 379 436 26,000  Level Cleveland Center
10:53AM 41.4297 -78.0981 343° North 375 432 26,000  Level Cleveland Center
10:54AM 41.5483 -78.1458 343° North 375 432 26,000 -780 Level Cleveland Center
10:55AM 41.6478 -78.1869 343° North 377 434 24,500 -1,560 Descending Cleveland Center
10:56AM 41.7458 -78.2269 343° North 373 429 22,800 -1,620 Descending Cleveland Center
10:57AM 41.8425 -78.2675 343° North 369 425 21,200 -1,620 Descending Cleveland Center
10:58AM 41.9381 -78.3072 343° North 364 419 19,600 -1,740 Descending Cleveland Center
10:59AM 42.0508 -78.3522 343° North 357 411 17,700 -1,680 Descending Cleveland Center
11:00AM 42.1431 -78.3931 342° North 352 405 16,200 -1,440 Descending Cleveland Center
11:01AM 42.2247 -78.4261 343° North 347 399 14,800 -1,560 Descending Cleveland Center
11:02AM 42.3325 -78.4717 343° North 340 391 13,000 -1,620 Descending Cleveland Center
11:03AM 42.4200 -78.5089 343° North 332 382 11,600 -1,380 Descending Cleveland Center
11:04AM 42.5053 -78.5456 342° North 323 372 10,200 -900 Descending Cleveland Center
11:05AM 42.5914 -78.5436 North 296 341 9,800 -780 Descending Cleveland Center
11:06AM 42.6614 -78.5294 North 275 316 8,700 -1,320 Descending Cleveland Center
11:07AM 42.7381 -78.5183 North 263 303 7,100 -1,860 Descending Cleveland Center
11:08AM 42.8108 -78.5242 357° North 254 292 5,000 -1,560 Descending Cleveland Center
11:09AM 42.8822 -78.5350 354° North 249 287 4,000 -1,020 Descending Cleveland Center
11:10AM 42.9511 -78.5453 354° North 242 278 3,000 -840 Descending Cleveland Center
11:11AM 42.9994 -78.5853 329° Northwest 230 265 2,300 -420 Descending Cleveland Center
11:12AM 43.0000 -78.6333 271° West 148 170 2,300 -360 Level Buffalo TRACON
11:13AM 42.9833 -78.6667 236° Southwest 119 137 1,700 -660 Descending Buffalo TRACON
11:14AM 42.9500 -78.7000 216° Southwest 121 139 1,000 -720 Descending Buffalo TRACON